createdAt,value
2019-04-16T00:01:56.649Z,65.20
2019-04-16T00:04:29.244Z,65.00
2019-04-16T00:07:17.533Z,65.10
2019-04-16T00:10:04.054Z,65.10
2019-04-16T00:12:43.277Z,65.50
2019-04-16T00:15:11.667Z,65.70
2019-04-16T00:17:40.073Z,66.20
2019-04-16T00:20:08.472Z,65.30
2019-04-16T00:22:38.498Z,65.60
2019-04-16T00:25:06.947Z,66.00
2019-04-16T00:27:35.333Z,65.70
2019-04-16T00:30:05.744Z,66.60
2019-04-16T00:32:34.183Z,66.80
2019-04-16T00:35:02.583Z,66.40
2019-04-16T00:37:30.956Z,66.70
2019-04-16T00:39:59.379Z,67.30
2019-04-16T00:42:27.803Z,67.90
2019-04-16T00:44:56.208Z,67.20
2019-04-16T00:47:24.596Z,67.50
2019-04-16T00:49:57.782Z,68.30
2019-04-16T00:52:23.166Z,67.60
2019-04-16T00:54:51.560Z,68.00
2019-04-16T00:57:19.945Z,68.90
2019-04-16T00:59:48.320Z,70.30
2019-04-16T01:02:16.719Z,70.30
2019-04-16T01:04:45.103Z,69.40
2019-04-16T01:07:13.495Z,70.60
2019-04-16T01:09:42.163Z,69.80
2019-04-16T01:12:10.559Z,70.20
2019-04-16T01:14:38.941Z,69.40
2019-04-16T01:17:07.336Z,70.80
2019-04-16T01:19:38.267Z,69.00
2019-04-16T01:22:05.832Z,71.60
2019-04-16T01:24:34.217Z,71.10
2019-04-16T01:27:02.603Z,72.20
2019-04-16T01:29:33.576Z,71.10
2019-04-16T01:32:09.829Z,72.50
2019-04-16T01:34:52.460Z,71.20
2019-04-16T01:37:25.521Z,71.00
2019-04-16T01:39:56.803Z,70.70
2019-04-16T01:42:25.526Z,68.80
2019-04-16T01:44:53.900Z,69.40
2019-04-16T01:47:22.292Z,68.30
2019-04-16T01:49:50.671Z,68.20
2019-04-16T01:52:19.675Z,68.30
2019-04-16T01:54:48.131Z,68.20
2019-04-16T01:57:16.523Z,68.80
2019-04-16T01:59:44.912Z,68.40
2019-04-16T02:02:15.557Z,68.70
2019-04-16T02:04:43.412Z,69.20
2019-04-16T02:07:11.826Z,68.50
2019-04-16T02:09:40.191Z,67.50
2019-04-16T02:12:12.761Z,72.40
2019-04-16T02:14:38.712Z,70.80
2019-04-16T02:17:07.102Z,72.50
2019-04-16T02:19:35.492Z,72.50
2019-04-16T02:22:04.034Z,70.70
2019-04-16T02:24:32.460Z,71.10
2019-04-16T02:27:00.845Z,75.60
2019-04-16T02:29:30.538Z,74.80
2019-04-16T02:31:59.134Z,76.90
2019-04-16T02:34:27.598Z,75.20
2019-04-16T02:37:00.832Z,79.00
2019-04-16T02:39:46.580Z,80.90
2019-04-16T02:41:58.106Z,76.60
2019-04-16T02:44:26.355Z,75.40
2019-04-16T02:46:54.736Z,79.40
2019-04-16T02:49:24.901Z,78.30
2019-04-16T02:51:54.895Z,78.40
2019-04-16T02:54:36.737Z,80.40
2019-04-16T02:57:16.146Z,81.40
2019-04-16T02:59:47.832Z,81.40
2019-04-16T03:02:33.308Z,80.40
2019-04-16T03:05:03.495Z,78.70
2019-04-16T03:07:32.791Z,78.80
2019-04-16T03:10:02.384Z,78.60
2019-04-16T03:12:31.155Z,80.70
2019-04-16T03:15:02.464Z,79.80
2019-04-16T03:17:39.517Z,81.60
2019-04-16T03:20:11.979Z,81.50
2019-04-16T03:22:40.704Z,84.00
2019-04-16T03:25:12.552Z,81.30
2019-04-16T03:27:39.352Z,81.20
2019-04-16T03:30:08.286Z,83.40
2019-04-16T03:32:52.034Z,82.90
2019-04-16T03:35:25.395Z,82.20
2019-04-16T03:37:50.612Z,86.00
2019-04-16T03:40:24.677Z,87.90
2019-04-16T03:42:49.117Z,88.90
2019-04-16T03:45:17.514Z,88.30
2019-04-16T03:47:51.004Z,88.60
2019-04-16T03:50:16.029Z,89.70
2019-04-16T03:52:45.762Z,88.80
2019-04-16T03:55:14.394Z,88.70
2019-04-16T03:57:42.795Z,90.70
2019-04-16T04:00:12.885Z,86.10
2019-04-16T04:02:41.575Z,83.70
2019-04-16T04:05:10.047Z,85.70
2019-04-16T04:07:38.423Z,86.20
2019-04-16T04:10:08.509Z,87.20
2019-04-16T04:12:36.884Z,89.70
2019-04-16T04:15:06.963Z,91.00
2019-04-16T04:17:38.342Z,87.70
2019-04-16T04:20:08.964Z,87.30
2019-04-16T04:22:37.360Z,90.20
2019-04-16T04:25:07.086Z,89.80
2019-04-16T04:27:35.488Z,90.70
2019-04-16T04:30:06.908Z,90.60
2019-04-16T04:32:36.215Z,91.60
2019-04-16T04:35:05.696Z,91.20
2019-04-16T04:37:34.092Z,86.80
2019-04-16T04:40:02.480Z,90.00
2019-04-16T04:42:30.876Z,89.40
2019-04-16T04:44:59.261Z,90.50
2019-04-16T04:47:27.660Z,91.50
2019-04-16T04:49:56.054Z,90.90
2019-04-16T04:52:27.271Z,90.30
2019-04-16T04:54:54.921Z,87.40
2019-04-16T04:57:23.388Z,84.20
2019-04-16T04:59:51.826Z,86.30
2019-04-16T05:02:20.227Z,84.50
2019-04-16T05:05:02.516Z,91.10
2019-04-16T05:07:30.922Z,91.50
2019-04-16T05:09:59.369Z,93.10
2019-04-16T05:12:27.804Z,92.10
2019-04-16T05:14:58.429Z,91.60
2019-04-16T05:17:27.918Z,86.80
2019-04-16T05:19:56.304Z,91.20
2019-04-16T05:22:24.701Z,90.30
2019-04-16T05:24:53.092Z,86.10
2019-04-16T05:27:21.488Z,86.90
2019-04-16T05:29:50.153Z,86.80
2019-04-16T05:32:18.547Z,87.80
2019-04-16T05:34:46.942Z,89.70
2019-04-16T05:37:16.611Z,82.90
2019-04-16T05:39:45.451Z,87.00
2019-04-16T05:42:13.837Z,83.60
2019-04-16T05:44:42.212Z,87.50
2019-04-16T05:47:10.677Z,90.40
2019-04-16T05:49:39.076Z,83.60
2019-04-16T05:52:07.480Z,82.50
2019-04-16T05:54:37.500Z,90.60
2019-04-16T05:57:19.496Z,85.00
2019-04-16T05:59:47.879Z,81.40
2019-04-16T06:02:20.602Z,83.30
2019-04-16T06:04:48.975Z,88.00
2019-04-16T06:07:17.360Z,89.10
2019-04-16T06:09:45.747Z,83.50
2019-04-16T06:12:14.160Z,81.80
2019-04-16T06:14:54.065Z,86.00
2019-04-16T06:17:31.964Z,84.70
2019-04-16T06:20:20.760Z,80.10
2019-04-16T06:23:00.659Z,80.90
2019-04-16T06:25:29.928Z,80.70
2019-04-16T06:28:16.315Z,78.90
2019-04-16T06:30:49.391Z,77.60
2019-04-16T06:33:25.385Z,78.30
2019-04-16T06:36:11.664Z,76.70
2019-04-16T06:38:41.769Z,74.50
2019-04-16T06:41:11.793Z,73.10
2019-04-16T06:43:44.479Z,71.60
2019-04-16T06:46:20.637Z,72.40
2019-04-16T06:48:50.735Z,71.60
2019-04-16T06:51:43.537Z,71.50
2019-04-16T06:54:29.041Z,72.30
2019-04-16T06:57:13.826Z,71.10
2019-04-16T06:59:46.355Z,70.80
2019-04-16T07:02:37.470Z,71.40
2019-04-16T07:05:07.604Z,70.20
2019-04-16T07:07:54.187Z,71.40
2019-04-16T07:10:25.467Z,70.80
2019-04-16T07:12:54.436Z,70.00
2019-04-16T07:15:25.320Z,68.70
2019-04-16T07:17:53.229Z,68.10
2019-04-16T07:20:21.768Z,67.20
2019-04-16T07:22:52.713Z,66.80
2019-04-16T07:25:20.679Z,65.80
2019-04-16T07:28:00.084Z,65.80
2019-04-16T07:30:30.227Z,64.30
2019-04-16T07:33:06.676Z,63.90
2019-04-16T07:35:42.508Z,63.20
2019-04-16T07:38:12.633Z,64.00
2019-04-16T07:40:42.657Z,62.30
2019-04-16T07:43:16.616Z,61.40
2019-04-16T07:45:52.488Z,59.90
2019-04-16T07:48:25.548Z,60.70
2019-04-16T07:50:55.574Z,59.30
2019-04-16T07:53:25.619Z,58.90
2019-04-16T07:55:55.644Z,57.50
2019-04-16T07:58:24.036Z,57.80
2019-04-16T08:00:52.996Z,57.90
2019-04-16T08:03:23.577Z,57.60
2019-04-16T08:05:51.500Z,56.30
2019-04-16T08:08:24.309Z,55.90
2019-04-16T08:10:50.033Z,55.70
2019-04-16T08:13:19.584Z,54.60
2019-04-16T08:15:48.629Z,54.50
2019-04-16T08:18:17.024Z,53.70
2019-04-16T08:20:45.426Z,53.80
2019-04-16T08:23:31.782Z,53.80
2019-04-16T08:26:04.007Z,54.40
2019-04-16T08:28:31.940Z,53.70
2019-04-16T08:31:01.213Z,52.40
2019-04-16T08:33:29.611Z,51.80
2019-04-16T08:35:58.228Z,51.40
2019-04-16T08:38:26.681Z,51.50
2019-04-16T08:40:55.496Z,51.00
2019-04-16T08:43:26.647Z,50.70
2019-04-16T08:45:54.012Z,50.00
2019-04-16T08:48:22.432Z,48.80
2019-04-16T08:50:50.838Z,49.10
2019-04-16T08:53:19.232Z,52.60
2019-04-16T08:55:47.642Z,49.80
2019-04-16T08:58:16.038Z,49.70
2019-04-16T09:00:47.513Z,48.90
2019-04-16T09:03:16.484Z,48.00
2019-04-16T09:05:44.910Z,49.50
2019-04-16T09:08:24.129Z,48.30
2019-04-16T09:10:52.541Z,47.60
2019-04-16T09:13:22.692Z,48.80
2019-04-16T09:15:51.108Z,49.00
2019-04-16T09:18:23.803Z,47.50
2019-04-16T09:20:52.204Z,46.80
2019-04-16T09:23:22.892Z,46.10
2019-04-16T09:25:52.633Z,46.00
2019-04-16T09:28:25.557Z,50.90
2019-04-16T09:31:06.464Z,53.50
2019-04-16T09:33:39.489Z,46.40
2019-04-16T09:36:18.724Z,43.60
2019-04-16T09:38:48.752Z,44.30
2019-04-16T09:41:21.863Z,44.20
2019-04-16T09:43:58.092Z,44.80
2019-04-16T09:46:49.580Z,44.60
2019-04-16T09:48:56.967Z,42.50
2019-04-16T09:51:26.279Z,42.20
2019-04-16T09:53:54.985Z,42.30
2019-04-16T09:56:28.899Z,42.60
2019-04-16T09:59:00.809Z,42.20
2019-04-16T10:01:42.947Z,42.20
2019-04-16T10:04:15.977Z,41.50
2019-04-16T10:06:44.386Z,41.10
2019-04-16T10:09:12.815Z,41.90
2019-04-16T10:11:41.256Z,46.70
2019-04-16T10:14:09.624Z,41.80
2019-04-16T10:16:38.035Z,39.70
2019-04-16T10:19:08.512Z,39.70
2019-04-16T10:21:36.548Z,40.10
2019-04-16T10:24:09.517Z,41.20
2019-04-16T10:26:37.928Z,41.10
2019-04-16T10:29:17.151Z,39.20
2019-04-16T10:31:45.680Z,43.00
2019-04-16T10:34:14.448Z,40.70
2019-04-16T10:36:42.864Z,39.20
2019-04-16T10:39:12.908Z,37.90
2019-04-16T10:41:45.732Z,39.60
2019-04-16T10:44:18.447Z,39.50
2019-04-16T10:47:04.960Z,40.10
2019-04-16T10:49:38.162Z,40.80
2019-04-16T10:52:11.153Z,39.60
2019-04-16T10:54:57.417Z,37.40
2019-04-16T10:57:27.482Z,37.00
2019-04-16T11:00:00.237Z,37.00
2019-04-16T11:02:36.284Z,38.50
2019-04-16T11:05:06.780Z,38.20
2019-04-16T11:07:36.052Z,37.40
2019-04-16T11:10:06.860Z,36.60
2019-04-16T11:12:35.268Z,38.00
2019-04-16T11:15:04.622Z,38.70
2019-04-16T11:17:33.059Z,38.50
2019-04-16T11:20:01.416Z,38.30
2019-04-16T11:22:29.821Z,37.70
2019-04-16T11:24:58.241Z,38.40
2019-04-16T11:27:26.624Z,38.20
2019-04-16T11:29:55.046Z,38.60
2019-04-16T11:32:25.161Z,39.10
2019-04-16T11:34:53.582Z,38.30
2019-04-16T11:37:22.029Z,38.50
2019-04-16T11:39:50.411Z,38.10
2019-04-16T11:42:19.045Z,38.40
2019-04-16T11:44:50.157Z,38.40
2019-04-16T11:47:20.512Z,38.20
2019-04-16T11:49:48.977Z,39.20
2019-04-16T11:52:17.439Z,40.30
2019-04-16T11:54:47.041Z,40.80
2019-04-16T11:57:16.127Z,41.00
2019-04-16T11:59:44.558Z,40.40
2019-04-16T12:02:17.424Z,39.40
2019-04-16T12:04:47.466Z,40.30
2019-04-16T12:07:23.508Z,41.20
2019-04-16T12:09:59.254Z,39.50
2019-04-16T12:12:38.268Z,38.70
2019-04-16T12:15:17.280Z,39.80
2019-04-16T12:18:02.567Z,41.10
2019-04-16T12:20:44.369Z,39.50
2019-04-16T12:23:29.738Z,47.10
2019-04-16T12:26:15.845Z,47.80
2019-04-16T12:28:55.121Z,43.60
2019-04-16T12:31:43.411Z,39.90
2019-04-16T12:34:13.488Z,38.00
2019-04-16T12:37:01.656Z,39.80
2019-04-16T12:39:37.452Z,38.50
2019-04-16T12:42:10.595Z,39.20
2019-04-16T12:44:49.832Z,39.30
2019-04-16T12:47:19.927Z,39.50
2019-04-16T12:49:50.141Z,40.40
2019-04-16T12:52:29.226Z,46.00
2019-04-16T12:55:15.772Z,42.20
2019-04-16T12:57:54.247Z,39.50
2019-04-16T13:00:31.642Z,41.30
2019-04-16T13:03:01.898Z,42.70
2019-04-16T13:05:34.993Z,43.30
2019-04-16T13:08:16.765Z,43.30
2019-04-16T13:10:49.814Z,43.80
2019-04-16T13:13:36.468Z,44.00
2019-04-16T13:16:06.497Z,49.50
2019-04-16T13:18:42.343Z,46.80
2019-04-16T13:21:15.269Z,44.70
2019-04-16T13:23:48.539Z,40.80
2019-04-16T13:26:24.745Z,41.40
2019-04-16T13:28:55.502Z,40.80
2019-04-16T13:31:23.346Z,42.50
2019-04-16T13:33:51.734Z,44.00
2019-04-16T13:36:20.131Z,42.00
2019-04-16T13:38:53.156Z,42.80
2019-04-16T13:41:26.305Z,41.70
2019-04-16T13:43:53.635Z,42.30
2019-04-16T13:46:21.379Z,43.10
2019-04-16T13:49:06.291Z,43.00
2019-04-16T13:51:35.947Z,42.90
2019-04-16T13:54:06.061Z,43.50
2019-04-16T13:56:36.098Z,43.10
2019-04-16T13:59:09.544Z,43.70
2019-04-16T14:01:45.201Z,43.70
2019-04-16T14:04:09.792Z,44.30
2019-04-16T14:06:38.192Z,45.00
2019-04-16T14:09:08.496Z,45.40
2019-04-16T14:11:37.695Z,45.40
2019-04-16T14:14:08.086Z,45.30
2019-04-16T14:16:36.168Z,45.70
2019-04-16T14:19:06.017Z,45.50
2019-04-16T14:21:34.931Z,45.30
2019-04-16T14:24:03.312Z,45.70
2019-04-16T14:26:31.726Z,45.50
2019-04-16T14:29:05.525Z,46.00
2019-04-16T14:31:30.356Z,46.20
2019-04-16T14:34:00.379Z,46.70
2019-04-16T14:36:28.781Z,46.70
2019-04-16T14:39:17.026Z,46.30
2019-04-16T14:41:50.110Z,46.30
2019-04-16T14:44:16.769Z,45.70
2019-04-16T14:46:45.167Z,45.50
2019-04-16T14:49:15.231Z,46.60
2019-04-16T14:51:43.754Z,46.10
2019-04-16T14:54:26.009Z,46.90
2019-04-16T14:56:56.332Z,47.40
2019-04-16T14:59:38.317Z,47.40
2019-04-16T15:02:11.696Z,47.80
2019-04-16T15:04:56.922Z,49.30
2019-04-16T15:07:25.192Z,47.20
2019-04-16T15:09:55.246Z,47.80
2019-04-16T15:12:25.285Z,48.30
2019-04-16T15:15:08.737Z,47.20
2019-04-16T15:17:47.944Z,47.60
2019-04-16T15:20:23.836Z,47.70
2019-04-16T15:23:06.461Z,47.80
2019-04-16T15:25:53.377Z,48.30
2019-04-16T15:28:23.409Z,47.90
2019-04-16T15:30:53.452Z,48.90
2019-04-16T15:33:40.155Z,48.80
2019-04-16T15:36:19.546Z,48.40
2019-04-16T15:39:04.015Z,47.80
2019-04-16T15:41:37.405Z,48.40
2019-04-16T15:44:10.200Z,48.10
2019-04-16T15:46:57.077Z,48.60
2019-04-16T15:49:27.105Z,48.40
2019-04-16T15:51:59.548Z,48.60
2019-04-16T15:54:35.885Z,49.50
2019-04-16T15:57:09.046Z,49.10
2019-04-16T15:59:57.230Z,49.20
2019-04-16T16:02:45.229Z,52.90
2019-04-16T16:05:17.072Z,48.60
2019-04-16T16:07:47.115Z,48.80
2019-04-16T16:10:19.792Z,51.50
2019-04-16T16:12:50.884Z,49.50
2019-04-16T16:15:18.316Z,50.20
2019-04-16T16:17:46.698Z,49.40
2019-04-16T16:20:15.730Z,49.80
2019-04-16T16:22:44.115Z,49.50
2019-04-16T16:25:12.948Z,49.20
2019-04-16T16:27:46.676Z,49.10
2019-04-16T16:30:14.370Z,49.60
2019-04-16T16:32:41.578Z,49.80
2019-04-16T16:35:10.037Z,49.90
2019-04-16T16:37:38.441Z,49.90
2019-04-16T16:40:07.255Z,50.20
2019-04-16T16:42:35.647Z,50.60
2019-04-16T16:45:05.572Z,50.40
2019-04-16T16:47:39.893Z,50.70
2019-04-16T16:50:11.545Z,50.40
2019-04-16T16:52:41.775Z,50.80
2019-04-16T16:55:12.754Z,50.90
2019-04-16T16:57:58.977Z,51.00
2019-04-16T17:00:45.482Z,51.20
2019-04-16T17:03:21.677Z,51.70
2019-04-16T17:05:51.036Z,51.40
2019-04-16T17:08:19.436Z,51.60
2019-04-16T17:10:47.824Z,51.50
2019-04-16T17:13:20.937Z,51.60
2019-04-16T17:15:46.352Z,52.50
2019-04-16T17:18:14.755Z,52.60
2019-04-16T17:20:43.142Z,52.90
2019-04-16T17:23:16.530Z,53.20
2019-04-16T17:25:41.777Z,53.50
2019-04-16T17:28:10.269Z,54.10
2019-04-16T17:30:38.707Z,54.60
2019-04-16T17:33:07.084Z,54.50
2019-04-16T17:35:35.478Z,54.70
2019-04-16T17:38:04.265Z,54.90
2019-04-16T17:40:34.256Z,55.10
2019-04-16T17:43:20.559Z,55.00
2019-04-16T17:46:07.105Z,55.20
2019-04-16T17:48:43.177Z,55.10
2019-04-16T17:51:35.326Z,56.10
2019-04-16T17:54:21.553Z,56.20
2019-04-16T17:57:08.538Z,57.10
2019-04-16T17:59:38.573Z,57.50
2019-04-16T18:02:14.552Z,58.60
2019-04-16T18:04:59.903Z,58.70
2019-04-16T18:07:29.945Z,59.70
2019-04-16T18:10:08.971Z,60.10
2019-04-16T18:12:41.903Z,60.00
2019-04-16T18:15:14.776Z,60.70
2019-04-16T18:18:01.653Z,61.20
2019-04-16T18:20:56.464Z,60.70
2019-04-16T18:23:14.025Z,61.00
2019-04-16T18:25:57.379Z,61.40
2019-04-16T18:28:27.700Z,61.20
2019-04-16T18:31:03.978Z,60.70
2019-04-16T18:33:39.933Z,62.30
2019-04-16T18:36:10.143Z,62.70
2019-04-16T18:38:40.170Z,62.80
2019-04-16T18:41:16.032Z,64.10
2019-04-16T18:44:02.815Z,67.20
2019-04-16T18:46:38.692Z,68.90
2019-04-16T18:49:14.237Z,70.80
2019-04-16T18:51:41.588Z,71.30
2019-04-16T18:54:09.972Z,71.90
2019-04-16T18:56:38.357Z,73.70
2019-04-16T18:59:06.911Z,72.70
2019-04-16T19:01:36.945Z,75.90
2019-04-16T19:04:05.719Z,73.80
2019-04-16T19:06:34.286Z,76.50
2019-04-16T19:09:03.656Z,74.20
2019-04-16T19:11:32.044Z,76.80
2019-04-16T19:14:00.425Z,77.30
2019-04-16T19:16:28.816Z,76.50
2019-04-16T19:18:57.215Z,77.60
2019-04-16T19:21:25.683Z,79.70
2019-04-16T19:23:54.346Z,82.40
2019-04-16T19:26:23.212Z,84.60
2019-04-16T19:28:51.588Z,85.40
2019-04-16T19:31:22.800Z,86.50
2019-04-16T19:33:50.086Z,87.50
2019-04-16T19:36:19.733Z,90.00
2019-04-16T19:38:48.916Z,90.80
2019-04-16T19:41:17.373Z,90.80
2019-04-16T19:43:45.773Z,90.80
2019-04-16T19:46:15.546Z,92.20
2019-04-16T19:48:44.305Z,92.00
2019-04-16T19:51:12.871Z,92.50
2019-04-16T19:53:41.226Z,90.60
2019-04-16T19:56:09.615Z,91.00
2019-04-16T19:58:38.080Z,92.00
2019-04-16T20:01:06.475Z,90.00
2019-04-16T20:03:34.856Z,91.50
2019-04-16T20:06:03.253Z,88.30
2019-04-16T20:08:36.691Z,90.60
2019-04-16T20:11:01.749Z,88.30
2019-04-16T20:13:30.137Z,88.00
2019-04-16T20:16:00.121Z,88.90
2019-04-16T20:18:31.512Z,91.50
2019-04-16T20:21:01.472Z,92.40
2019-04-16T20:23:30.214Z,91.50
2019-04-16T20:26:00.413Z,93.50
2019-04-16T20:28:28.714Z,91.00
2019-04-16T20:31:01.363Z,92.70
2019-04-16T20:33:27.227Z,93.50
2019-04-16T20:35:55.615Z,93.00
2019-04-16T20:38:29.079Z,93.10
2019-04-16T20:40:54.279Z,93.80
2019-04-16T20:43:22.696Z,94.50
2019-04-16T20:45:51.160Z,93.10
2019-04-16T20:48:19.543Z,94.70
2019-04-16T20:50:52.681Z,94.30
2019-04-16T20:53:18.478Z,94.10
2019-04-16T20:55:48.203Z,94.40
2019-04-16T20:58:16.873Z,94.70
2019-04-16T21:00:46.899Z,93.50
2019-04-16T21:03:22.176Z,93.60
2019-04-16T21:05:57.387Z,93.60
2019-04-16T21:08:17.078Z,94.60
2019-04-16T21:10:45.882Z,95.50
2019-04-16T21:13:16.232Z,95.80
2019-04-16T21:15:44.393Z,95.00
2019-04-16T21:18:12.789Z,95.20
2019-04-16T21:20:41.159Z,94.20
2019-04-16T21:23:09.556Z,94.70
2019-04-16T21:25:37.959Z,93.70
2019-04-16T21:28:19.552Z,95.00
2019-04-16T21:30:49.572Z,95.30
2019-04-16T21:33:25.317Z,95.60
2019-04-16T21:35:55.332Z,95.40
2019-04-16T21:38:31.233Z,95.40
2019-04-16T21:40:59.610Z,95.70
2019-04-16T21:43:28.038Z,95.60
2019-04-16T21:45:56.400Z,95.30
2019-04-16T21:48:26.783Z,95.30
2019-04-16T21:50:55.386Z,95.90
2019-04-16T21:53:24.635Z,94.90
2019-04-16T21:55:53.976Z,95.40
2019-04-16T21:58:22.376Z,94.90
2019-04-16T22:00:52.396Z,95.50
2019-04-16T22:03:22.438Z,96.30
2019-04-16T22:05:50.883Z,96.70
2019-04-16T22:08:19.285Z,96.20
2019-04-16T22:10:47.660Z,96.00
2019-04-16T22:13:19.106Z,96.50
2019-04-16T22:15:46.482Z,95.90
2019-04-16T22:18:14.871Z,95.60
2019-04-16T22:20:43.263Z,94.90
2019-04-16T22:23:11.683Z,94.80
2019-04-16T22:25:40.069Z,95.70
2019-04-16T22:28:11.998Z,96.00
2019-04-16T22:30:38.833Z,95.80
2019-04-16T22:33:07.624Z,95.50
2019-04-16T22:35:36.183Z,96.30
2019-04-16T22:38:04.584Z,94.90
2019-04-16T22:40:34.612Z,96.60
2019-04-16T22:43:21.027Z,96.70
2019-04-16T22:45:57.158Z,97.70
2019-04-16T22:48:25.544Z,98.20
2019-04-16T22:50:53.924Z,98.40
2019-04-16T22:53:22.335Z,98.90
2019-04-16T22:55:56.272Z,99.30
2019-04-16T22:58:24.554Z,99.20
2019-04-16T23:00:54.837Z,99.20
2019-04-16T23:03:23.232Z,99.40
2019-04-16T23:05:51.617Z,99.50
2019-04-16T23:08:20.012Z,99.80
2019-04-16T23:10:50.542Z,99.40
2019-04-16T23:13:18.778Z,99.80
2019-04-16T23:15:47.467Z,99.70
2019-04-16T23:18:17.492Z,99.80
2019-04-16T23:21:26.091Z,99.70
2019-04-16T23:23:54.475Z,99.90
2019-04-16T23:26:22.861Z,99.90
2019-04-16T23:28:51.260Z,99.90
2019-04-16T23:31:22.278Z,99.90
2019-04-16T23:33:49.761Z,99.90
2019-04-16T23:36:18.135Z,99.90
2019-04-16T23:38:46.527Z,99.90
2019-04-16T23:41:16.678Z,99.90
2019-04-16T23:43:53.577Z,99.90
2019-04-16T23:46:40.637Z,99.90
2019-04-16T23:49:10.675Z,99.90
2019-04-16T23:51:40.693Z,99.90
2019-04-16T23:54:19.700Z,99.90
2019-04-16T23:56:55.781Z,99.90
2019-04-16T23:59:28.792Z,99.90
